Time;durP1;ratioP1;P1;durP2;ratioP2;P2;SDS_P1;SDS_P2;PMS_P1;PMS_P2;Temp;Humidity;BMP_temperature;BMP_pressure;BME280_temperature;BME280_humidity;BME280_pressure;Samples;Min_cycle;Max_cycle;Signal;HPM_P1;HPM_P2
2022/01/15 00:00:49;;;;;;;25.07;19.53;;;;;;;-0.74;94.06;100138.03;5027035;27;102753;-65
2022/01/15 00:03:18;;;;;;;23.27;18.43;;;;;;;-0.60;93.58;100125.84;5024830;27;104224;-64
2022/01/15 00:05:46;;;;;;;19.57;16.30;;;;;;;-0.48;93.37;100118.88;5043214;27;103980;-66
2022/01/15 00:08:14;;;;;;;27.27;21.30;;;;;;;-0.47;91.67;100116.25;5053494;27;103269;-67
2022/01/15 00:10:42;;;;;;;24.73;20.27;;;;;;;-0.55;90.71;100117.16;5052203;27;102781;-64
2022/01/15 00:13:20;;;;;;;28.00;21.90;;;;;;;-0.72;90.58;100110.31;5051126;27;103914;-64
2022/01/15 00:16:01;;;;;;;29.40;22.90;;;;;;;-0.88;92.37;100113.88;5055053;27;103320;-63
2022/01/15 00:18:41;;;;;;;26.87;21.60;;;;;;;-0.86;92.52;100109.53;5044892;27;103272;-64
2022/01/15 00:21:10;;;;;;;30.43;21.37;;;;;;;-0.75;92.72;100109.47;5031182;27;102612;-65
2022/01/15 00:23:41;;;;;;;31.73;23.60;;;;;;;-1.30;92.64;100112.28;5051558;27;104352;-65
2022/01/15 00:26:09;;;;;;;27.17;19.63;;;;;;;-1.19;94.91;100112.25;5034771;27;104028;-65
2022/01/15 00:28:37;;;;;;;26.27;17.83;;;;;;;-0.98;94.42;100106.97;5056198;27;103351;-64
2022/01/15 00:31:06;;;;;;;25.37;21.60;;;;;;;-1.03;93.37;100113.03;5054395;27;102921;-63
2022/01/15 00:33:34;;;;;;;27.63;20.03;;;;;;;-1.09;93.96;100107.88;5056672;27;103906;-64
2022/01/15 00:36:03;;;;;;;30.63;22.43;;;;;;;-0.91;94.78;100110.41;5054618;27;103971;-65
2022/01/15 00:38:31;;;;;;;31.33;22.53;;;;;;;-0.84;93.90;100104.34;5045043;27;103095;-66
2022/01/15 00:40:59;;;;;;;26.30;21.50;;;;;;;-0.98;92.79;100109.56;5050838;27;102578;-65
2022/01/15 00:43:29;;;;;;;25.90;20.80;;;;;;;-0.99;93.74;100105.25;5029364;27;102873;-64
2022/01/15 00:45:58;;;;;;;26.67;20.43;;;;;;;-0.85;93.58;100106.06;5053872;27;104170;-65
2022/01/15 00:48:28;;;;;;;30.67;22.97;;;;;;;-0.94;93.16;100103.50;5054528;27;103193;-65
2022/01/15 00:50:56;;;;;;;27.80;22.80;;;;;;;-1.25;93.78;100107.94;5054721;27;102711;-65
2022/01/15 00:53:24;;;;;;;26.17;21.03;;;;;;;-1.15;94.75;100100.13;5056436;27;103885;-65
2022/01/15 00:55:52;;;;;;;21.63;17.47;;;;;;;-0.95;94.93;100090.53;5030355;27;103302;-65
2022/01/15 00:58:20;;;;;;;25.07;19.20;;;;;;;-0.90;94.56;100096.59;5047197;27;103203;-65
2022/01/15 01:00:48;;;;;;;28.00;21.57;;;;;;;-1.14;95.32;100094.06;5054802;27;102735;-65
2022/01/15 01:03:16;;;;;;;28.47;22.10;;;;;;;-1.63;98.36;100104.56;5041175;27;102693;-65
2022/01/15 01:05:46;;;;;;;26.03;20.90;;;;;;;-1.68;99.70;100116.66;5056495;27;103280;-65
2022/01/15 01:08:14;;;;;;;31.97;21.60;;;;;;;-1.78;100.00;100100.28;5056923;27;103262;-65
2022/01/15 01:10:52;;;;;;;29.13;21.43;;;;;;;-1.66;100.00;100093.34;5061924;27;102716;-65
2022/01/15 01:24:34;;;;;;;27.30;19.20;;;;;;;-1.47;99.93;100084.66;5051198;27;103824;-64
2022/01/15 01:27:07;;;;;;;24.50;19.43;;;;;;;-1.67;99.87;100089.00;5057369;27;103460;-65
2022/01/15 01:29:46;;;;;;;23.23;18.90;;;;;;;-1.82;100.00;100088.16;5037880;27;104207;-65
2022/01/15 01:32:24;;;;;;;25.43;19.20;;;;;;;-1.85;100.00;100085.56;5047947;27;102666;-66
2022/01/15 01:34:53;;;;;;;22.17;17.47;;;;;;;-1.71;100.00;100089.91;5055307;27;102660;-65
2022/01/15 01:37:32;;;;;;;27.40;18.23;;;;;;;-1.77;100.00;100086.44;5033754;27;104233;-65
2022/01/15 01:40:17;;;;;;;23.43;18.80;;;;;;;-1.78;100.00;100089.91;5054334;27;103202;-66
2022/01/15 01:43:02;;;;;;;23.50;16.87;;;;;;;-1.78;100.00;100095.09;5036144;27;103004;-65
2022/01/15 01:45:30;;;;;;;20.70;17.33;;;;;;;-1.70;100.00;100096.78;5037546;27;102784;-65
2022/01/15 01:47:58;;;;;;;22.97;18.17;;;;;;;-1.67;100.00;100099.38;5064515;27;103994;-65
2022/01/15 01:50:30;;;;;;;20.23;16.13;;;;;;;-1.49;99.54;100094.19;5050763;27;103207;-65
2022/01/15 01:53:00;;;;;;;17.87;13.97;;;;;;;-1.29;100.00;100090.66;5049223;27;102573;-65
2022/01/15 01:55:29;;;;;;;19.60;14.93;;;;;;;-1.22;98.59;100091.50;5060169;27;103480;-65
2022/01/15 01:57:59;;;;;;;19.60;15.57;;;;;;;-1.11;98.14;100091.47;5058466;27;103655;-66
2022/01/15 02:00:31;;;;;;;17.30;13.93;;;;;;;-1.05;97.20;100092.31;5042991;27;103183;-64
2022/01/15 02:03:01;;;;;;;22.33;16.70;;;;;;;-1.08;95.66;100089.72;5055011;27;102607;-65
2022/01/15 02:05:29;;;;;;;20.63;16.37;;;;;;;-1.05;95.01;100078.47;5034998;27;103870;-64
2022/01/15 02:07:57;;;;;;;19.23;14.97;;;;;;;-1.10;94.36;100080.22;5051454;27;103244;-65
2022/01/15 02:10:27;;;;;;;21.47;15.83;;;;;;;-1.35;94.23;100074.28;5058715;27;103215;-64
2022/01/15 02:12:55;;;;;;;18.80;16.30;;;;;;;-1.47;94.55;100076.88;5049895;27;102680;-64
2022/01/15 02:15:24;;;;;;;18.97;15.30;;;;;;;-1.53;95.60;100071.72;5033228;27;103973;-64
2022/01/15 02:17:53;;;;;;;18.17;13.80;;;;;;;-1.34;95.29;100071.66;5052426;27;103285;-64
2022/01/15 02:20:36;;;;;;;14.57;12.93;;;;;;;-1.23;95.39;100069.88;5060185;27;103189;-64
2022/01/15 02:25:56;;;;;;;19.73;14.73;;;;;;;-1.23;93.32;100066.44;5053931;27;102995;-64
2022/01/15 02:28:25;;;;;;;14.17;11.23;;;;;;;-1.13;93.33;100059.47;5056548;27;103660;-64
2022/01/15 02:30:54;;;;;;;18.67;15.10;;;;;;;-1.07;93.06;100072.44;5056699;27;103201;-65
2022/01/15 02:33:23;;;;;;;21.00;17.47;;;;;;;-1.72;90.93;100062.25;5055185;27;102511;-65
2022/01/15 02:35:53;;;;;;;20.80;16.77;;;;;;;-1.67;92.66;100060.50;5036572;27;102664;-65
2022/01/15 02:38:21;;;;;;;22.70;17.10;;;;;;;-1.72;92.72;100068.28;5053708;27;103744;-65
2022/01/15 02:40:49;;;;;;;16.67;13.77;;;;;;;-1.58;93.17;100055.31;5054642;27;103190;-64
2022/01/15 02:43:21;;;;;;;20.10;15.70;;;;;;;-1.52;93.05;100050.13;5052694;27;102954;-65
2022/01/15 02:45:55;;;;;;;17.93;13.43;;;;;;;-1.38;93.50;100053.53;5054192;27;102612;-65
2022/01/15 02:48:25;;;;;;;19.13;14.50;;;;;;;-1.46;92.01;100050.94;5056882;27;103796;-65
2022/01/15 02:50:56;;;;;;;16.83;13.07;;;;;;;-1.42;91.83;100041.44;5045839;27;103836;-65
2022/01/15 02:53:24;;;;;;;21.20;15.27;;;;;;;-1.49;91.87;100040.59;5047181;27;102973;-65
2022/01/15 02:55:55;;;;;;;17.50;14.17;;;;;;;-1.46;92.22;100040.56;5050311;27;104072;-65
2022/01/15 02:58:24;;;;;;;15.20;12.27;;;;;;;-1.54;92.88;100037.13;5056088;27;103872;-65
2022/01/15 03:00:53;;;;;;;18.40;14.27;;;;;;;-1.40;93.29;100039.69;5056406;27;103237;-65
2022/01/15 03:03:22;;;;;;;16.60;14.20;;;;;;;-1.30;93.12;100044.00;5054948;27;103773;-65
2022/01/15 03:05:50;;;;;;;16.23;13.47;;;;;;;-1.25;91.58;100034.47;5033702;27;103284;-65
2022/01/15 03:08:19;;;;;;;15.07;13.27;;;;;;;-1.34;90.63;100018.94;5050943;27;103240;-65
2022/01/15 03:10:48;;;;;;;22.17;15.83;;;;;;;-1.67;91.12;100029.41;5046299;27;103239;-64
2022/01/15 03:13:16;;;;;;;21.47;16.47;;;;;;;-1.82;92.09;100020.81;5042307;27;102971;-64
2022/01/15 03:15:44;;;;;;;16.03;12.67;;;;;;;-1.57;93.17;100011.22;5044527;27;103582;-64
2022/01/15 03:18:12;;;;;;;20.37;16.00;;;;;;;-1.63;92.00;100016.47;5055320;27;103360;-64
2022/01/15 03:20:40;;;;;;;21.63;15.67;;;;;;;-1.77;92.29;100018.22;5044450;27;104159;-66
2022/01/15 03:23:08;;;;;;;17.53;13.93;;;;;;;-1.61;92.24;100025.09;5029671;27;102681;-66
2022/01/15 03:25:37;;;;;;;15.47;13.03;;;;;;;-1.57;92.19;100010.38;5034642;27;103531;-65
2022/01/15 03:28:05;;;;;;;22.00;15.87;;;;;;;-2.11;92.88;100017.41;5051352;27;103822;-65
2022/01/15 03:30:33;;;;;;;18.97;15.33;;;;;;;-1.98;94.81;100010.47;5049622;27;103202;-65
2022/01/15 03:33:04;;;;;;;21.20;16.30;;;;;;;-1.93;94.69;100006.13;5048976;27;102604;-64
2022/01/15 03:35:35;;;;;;;21.13;16.23;;;;;;;-1.94;94.64;100002.72;5062526;27;102718;-66
2022/01/15 03:38:04;;;;;;;17.13;15.07;;;;;;;-1.92;93.73;100002.69;5048199;27;104143;-65
2022/01/15 03:40:32;;;;;;;20.80;16.80;;;;;;;-1.80;93.96;100003.50;5033057;27;104184;-65
2022/01/15 03:43:03;;;;;;;19.90;16.20;;;;;;;-2.07;93.07;100003.56;5045299;27;102941;-65
2022/01/15 03:45:32;;;;;;;20.87;17.77;;;;;;;-2.19;95.74;99992.38;5058342;27;103575;-65
2022/01/15 03:48:01;;;;;;;25.33;18.47;;;;;;;-2.01;96.44;99982.84;5036195;27;104182;-65
2022/01/15 03:50:29;;;;;;;22.97;17.40;;;;;;;-2.26;94.64;99994.09;5035270;27;104111;-65
2022/01/15 03:52:57;;;;;;;20.07;17.13;;;;;;;-2.04;96.63;99993.22;5030177;27;102744;-65
2022/01/15 03:55:28;;;;;;;23.37;17.47;;;;;;;-1.80;95.47;99981.94;5037575;27;103280;-66
2022/01/15 03:58:00;;;;;;;16.87;14.13;;;;;;;-1.72;94.27;99990.56;5060297;27;103307;-65
2022/01/15 04:00:30;;;;;;;20.20;16.17;;;;;;;-1.62;92.91;99979.28;5050236;27;103402;-65
2022/01/15 04:02:58;;;;;;;19.47;16.13;;;;;;;-1.61;91.79;99978.44;5060132;27;102587;-65
2022/01/15 04:05:26;;;;;;;22.97;16.63;;;;;;;-1.96;90.68;99986.28;5033812;27;102700;-65
2022/01/15 04:07:54;;;;;;;22.80;16.80;;;;;;;-2.13;92.85;99993.22;5050937;27;103233;-65
2022/01/15 04:10:23;;;;;;;18.23;14.83;;;;;;;-1.87;93.20;99986.28;5048264;27;103183;-65
2022/01/15 04:12:51;;;;;;;20.57;16.20;;;;;;;-1.77;92.30;99987.97;5044569;27;102615;-66
2022/01/15 04:15:21;;;;;;;20.47;15.20;;;;;;;-1.68;91.80;99987.06;5055047;27;103434;-65
2022/01/15 04:17:50;;;;;;;24.67;17.37;;;;;;;-1.66;91.07;99979.31;5035898;27;103327;-65
2022/01/15 04:20:22;;;;;;;21.33;16.87;;;;;;;-1.78;90.30;99981.06;5044597;27;103174;-65
2022/01/15 04:22:51;;;;;;;26.33;18.03;;;;;;;-2.30;92.53;99984.59;5050865;27;102633;-66
2022/01/15 04:25:20;;;;;;;25.23;18.13;;;;;;;-2.27;92.92;99978.59;5058100;27;103711;-66
2022/01/15 04:27:48;;;;;;;21.00;16.67;;;;;;;-2.06;93.44;99982.00;5056048;27;103910;-66
2022/01/15 04:30:18;;;;;;;16.80;13.40;;;;;;;-1.91;93.13;99989.72;5059072;27;103245;-65
2022/01/15 04:32:46;;;;;;;18.37;12.90;;;;;;;-1.85;92.47;99992.31;5058126;27;102635;-65
2022/01/15 04:35:15;;;;;;;21.27;17.17;;;;;;;-1.84;91.74;99978.50;5064014;27;102763;-66
2022/01/15 04:37:46;;;;;;;19.53;15.97;;;;;;;-1.89;90.91;99982.84;5055840;27;103173;-65
2022/01/15 04:40:17;;;;;;;21.93;16.00;;;;;;;-1.99;90.29;99975.06;5053655;27;103229;-66
2022/01/15 04:42:47;;;;;;;16.63;13.67;;;;;;;-1.86;91.46;99977.66;5048127;27;102651;-67
2022/01/15 04:45:15;;;;;;;19.73;15.40;;;;;;;-2.26;90.71;99978.56;5051411;27;102796;-65
2022/01/15 04:47:43;;;;;;;18.60;14.30;;;;;;;-2.04;91.74;99977.66;5048890;27;103307;-65
2022/01/15 04:50:14;;;;;;;19.57;15.97;;;;;;;-2.01;90.91;99972.50;5049766;27;103714;-65
2022/01/15 04:52:44;;;;;;;19.63;15.73;;;;;;;-2.20;90.85;99981.16;5054009;27;102629;-65
2022/01/15 04:55:13;;;;;;;18.10;15.33;;;;;;;-2.33;92.79;99983.75;5045443;27;104002;-65
2022/01/15 04:57:42;;;;;;;21.17;17.13;;;;;;;-2.48;94.04;99980.31;5047696;27;103948;-65
2022/01/15 05:00:13;;;;;;;23.87;16.73;;;;;;;-2.25;94.13;99988.06;5055000;27;103199;-65
2022/01/15 05:02:44;;;;;;;18.83;15.63;;;;;;;-2.21;94.18;99989.78;5046105;27;102816;-64
2022/01/15 05:05:13;;;;;;;17.80;13.83;;;;;;;-2.09;94.79;99989.78;5052823;27;102715;-64
2022/01/15 05:07:42;;;;;;;17.57;13.50;;;;;;;-1.91;94.92;99983.69;5037163;27;104073;-65
2022/01/15 05:10:17;;;;;;;14.93;12.20;;;;;;;-1.84;93.82;99986.25;5034288;27;103196;-64
2022/01/15 05:12:47;;;;;;;19.17;15.23;;;;;;;-2.22;91.69;99987.19;5056943;27;103561;-65
2022/01/15 05:15:17;;;;;;;18.77;14.70;;;;;;;-2.39;93.20;99990.63;5035189;27;103095;-64
2022/01/15 05:17:46;;;;;;;19.57;15.27;;;;;;;-2.43;94.53;99988.94;5049378;27;103233;-65
2022/01/15 05:20:17;;;;;;;20.00;16.57;;;;;;;-2.70;94.74;99990.66;5050852;27;103186;-65
2022/01/15 05:22:46;;;;;;;22.27;17.37;;;;;;;-2.60;96.12;99997.53;5040856;27;102676;-65
2022/01/15 05:25:17;;;;;;;22.33;16.47;;;;;;;-2.57;96.34;99994.97;5048107;27;103915;-65
2022/01/15 05:27:46;;;;;;;18.40;15.10;;;;;;;-2.40;96.11;99993.25;5052985;27;103144;-62
2022/01/15 05:30:15;;;;;;;17.93;14.53;;;;;;;-2.29;96.25;100003.59;5036032;27;104188;-62
2022/01/15 05:32:43;;;;;;;19.03;15.20;;;;;;;-2.16;95.79;99998.41;5056837;27;103191;-63
2022/01/15 05:35:12;;;;;;;19.87;15.80;;;;;;;-2.30;94.13;99999.28;5032681;27;102699;-63
2022/01/15 05:37:40;;;;;;;21.53;15.07;;;;;;;-2.24;94.82;100000.13;5049800;27;103640;-63
2022/01/15 05:40:09;;;;;;;17.67;13.20;;;;;;;-2.18;94.79;99996.66;5054012;27;103192;-63
2022/01/15 05:42:42;;;;;;;15.77;11.37;;;;;;;-2.08;94.67;99991.50;5047367;27;102674;-63
2022/01/15 05:45:13;;;;;;;18.97;11.73;;;;;;;-2.01;93.86;99998.38;5059280;27;103839;-64
2022/01/15 05:47:41;;;;;;;19.77;14.13;;;;;;;-1.99;93.47;99996.66;5039441;27;104208;-63
2022/01/15 05:50:10;;;;;;;16.10;13.30;;;;;;;-1.92;93.58;100006.16;5056466;27;102978;-63
2022/01/15 05:52:39;;;;;;;17.13;12.57;;;;;;;-1.89;92.34;99998.38;5053269;27;102682;-63
2022/01/15 05:55:07;;;;;;;23.40;15.50;;;;;;;-1.86;91.29;99995.78;5037245;27;104242;-64
2022/01/15 05:57:35;;;;;;;20.47;15.70;;;;;;;-2.04;89.69;100003.56;5057913;27;102972;-63
2022/01/15 06:00:09;;;;;;;18.97;15.07;;;;;;;-2.07;90.29;99998.38;5055084;27;103134;-63
2022/01/15 06:02:43;;;;;;;15.50;13.43;;;;;;;-2.03;91.37;99997.53;5047940;27;102662;-64
2022/01/15 06:05:11;;;;;;;15.10;12.27;;;;;;;-1.86;90.73;99993.19;5055513;27;103696;-64
2022/01/15 06:07:39;;;;;;;18.20;13.40;;;;;;;-1.92;89.96;100000.97;5058534;27;104243;-65
2022/01/15 06:10:09;;;;;;;18.60;13.47;;;;;;;-1.88;90.25;99992.31;5057224;27;103196;-64
2022/01/15 06:12:42;;;;;;;15.67;12.30;;;;;;;-1.92;89.52;99995.78;5055479;27;102699;-64
2022/01/15 06:15:13;;;;;;;16.90;13.50;;;;;;;-1.88;89.25;99994.91;5056862;27;103723;-64
2022/01/15 06:17:42;;;;;;;17.07;15.17;;;;;;;-1.97;88.59;99994.94;5049235;27;103808;-64
2022/01/15 06:20:13;;;;;;;19.20;14.97;;;;;;;-2.19;89.75;99995.81;5031846;27;104218;-64
2022/01/15 06:22:41;;;;;;;19.03;14.80;;;;;;;-2.38;90.41;100000.13;5048092;27;103043;-64
2022/01/15 06:25:10;;;;;;;17.70;13.70;;;;;;;-2.22;91.58;99993.25;5029662;27;104227;-64
2022/01/15 06:27:38;;;;;;;20.23;15.27;;;;;;;-2.13;91.44;99990.63;5059836;27;103173;-64
2022/01/15 06:30:07;;;;;;;16.80;13.50;;;;;;;-2.13;91.10;99997.56;5050524;27;103220;-64
2022/01/15 06:32:37;;;;;;;23.53;15.57;;;;;;;-2.15;91.09;99989.78;5050611;27;102549;-64
2022/01/15 06:35:12;;;;;;;20.37;14.93;;;;;;;-2.16;90.20;99988.03;5054808;27;103550;-64
2022/01/15 06:37:47;;;;;;;17.50;14.30;;;;;;;-2.30;90.87;99994.94;5028514;27;103377;-64
2022/01/15 06:40:19;;;;;;;18.63;14.53;;;;;;;-2.41;91.88;99991.50;5047548;27;102919;-64
2022/01/15 06:42:47;;;;;;;21.37;15.40;;;;;;;-2.33;93.06;99989.81;5030110;27;102745;-65
2022/01/15 06:45:15;;;;;;;20.57;17.07;;;;;;;-2.29;93.14;99990.63;5028157;27;103905;-65
2022/01/15 06:47:44;;;;;;;19.83;15.50;;;;;;;-2.28;93.39;99990.66;5055882;27;103404;-64
2022/01/15 06:50:13;;;;;;;16.80;13.50;;;;;;;-2.07;93.21;99981.97;5048362;27;103200;-63
2022/01/15 06:52:41;;;;;;;15.63;12.87;;;;;;;-1.99;92.37;99985.41;5053344;27;102698;-64
2022/01/15 06:55:10;;;;;;;17.97;15.23;;;;;;;-2.20;90.22;99980.28;5031610;27;103788;-64
2022/01/15 06:57:39;;;;;;;18.23;14.37;;;;;;;-2.19;90.21;99982.84;5036588;27;103206;-64
2022/01/15 07:00:09;;;;;;;21.57;16.93;;;;;;;-2.32;90.44;99978.56;5043686;27;103372;-61
2022/01/15 07:02:37;;;;;;;22.53;17.80;;;;;;;-2.64;93.47;99982.88;5054495;27;102617;-61
2022/01/15 07:05:08;;;;;;;22.47;17.40;;;;;;;-2.66;94.67;99989.78;5048688;27;102574;-61
2022/01/15 07:07:40;;;;;;;19.80;15.30;;;;;;;-2.50;94.17;99984.59;5052725;27;103717;-60
2022/01/15 07:10:09;;;;;;;17.63;14.57;;;;;;;-2.38;94.09;99975.97;5049171;27;102952;-60
2022/01/15 07:12:38;;;;;;;18.83;15.63;;;;;;;-2.29;93.51;99978.56;5054851;27;103502;-60
2022/01/15 07:15:06;;;;;;;21.93;16.63;;;;;;;-2.38;92.80;99976.84;5049287;27;102551;-59
2022/01/15 07:17:40;;;;;;;21.77;16.77;;;;;;;-2.46;92.88;99978.56;5053757;27;103437;-60
2022/01/15 07:20:12;;;;;;;22.03;17.50;;;;;;;-2.66;93.40;99979.41;5052969;27;103259;-60
2022/01/15 07:22:41;;;;;;;22.77;17.93;;;;;;;-2.60;94.11;99982.00;5048538;27;103033;-64
2022/01/15 07:25:10;;;;;;;24.03;18.33;;;;;;;-2.76;94.52;99972.53;5037567;27;102943;-63
2022/01/15 07:27:43;;;;;;;27.30;18.83;;;;;;;-2.79;94.68;99972.53;5054763;27;102986;-63
2022/01/15 07:30:15;;;;;;;23.17;18.47;;;;;;;-2.88;95.11;99975.94;5052224;27;103183;-64
2022/01/15 07:32:43;;;;;;;27.47;19.87;;;;;;;-2.90;95.23;99969.94;5046656;27;102692;-64
2022/01/15 07:35:17;;;;;;;28.77;19.53;;;;;;;-2.92;95.08;99970.78;5029534;27;102691;-64
2022/01/15 07:37:45;;;;;;;29.27;19.87;;;;;;;-3.02;95.69;99981.09;5056351;27;103212;-64
2022/01/15 07:40:13;;;;;;;28.67;19.80;;;;;;;-2.95;96.51;99977.66;5030961;27;104398;-64
2022/01/15 07:42:41;;;;;;;42.57;20.27;;;;;;;-3.34;97.34;99979.31;5056784;27;102607;-64
2022/01/15 07:45:15;;;;;;;28.90;19.73;;;;;;;-3.27;99.53;99981.91;5049350;27;103849;-64
2022/01/15 07:47:44;;;;;;;49.28;29.30;;;;;;;-2.82;96.79;99968.22;5045727;27;103484;-61
2022/01/15 07:50:23;;;;;;;40.30;27.65;;;;;;;-2.53;95.92;99968.22;5052904;27;103243;-60
2022/01/15 07:52:52;;;;;;;34.10;25.73;;;;;;;-2.00;93.95;99969.03;5047529;27;102650;-60
2022/01/15 07:55:21;;;;;;;35.92;25.40;;;;;;;-1.67;91.85;99962.03;5054290;27;103800;-60
2022/01/15 07:58:01;;;;;;;37.42;26.52;;;;;;;-1.82;90.18;99961.22;5045660;27;103358;-60
2022/01/15 08:00:29;;;;;;;36.63;28.13;;;;;;;-1.92;90.57;99954.34;5033868;27;103282;-60
2022/01/15 08:02:57;;;;;;;37.88;29.95;;;;;;;-2.23;91.16;99950.09;5048421;27;102768;-61
2022/01/15 08:05:27;;;;;;;30.63;26.23;;;;;;;-1.79;90.90;99950.84;5029267;27;102997;-61
2022/01/15 08:07:55;;;;;;;29.55;25.40;;;;;;;-1.61;90.27;99946.47;5044137;27;103231;-61
2022/01/15 08:10:23;;;;;;;28.55;24.60;;;;;;;-1.23;89.52;99952.31;5028957;27;104159;-64
2022/01/15 08:12:52;;;;;;;31.77;26.17;;;;;;;-1.43;87.67;99946.41;5046865;27;103615;-61
2022/01/15 08:15:21;;;;;;;29.73;25.57;;;;;;;-1.27;88.54;99942.84;5035368;27;103045;-60
2022/01/15 08:17:50;;;;;;;29.38;24.77;;;;;;;-1.07;87.91;99935.81;5041478;27;103873;-60
2022/01/15 08:20:20;;;;;;;24.50;22.00;;;;;;;-0.66;87.27;99945.91;5037537;27;103223;-64
2022/01/15 08:22:52;;;;;;;23.60;17.43;;;;;;;-1.05;87.74;99948.75;5016846;27;102752;-63
2022/01/15 08:25:22;;;;;;;21.40;15.60;;;;;;;-1.47;87.93;99952.44;5044544;27;102769;-61
2022/01/15 08:27:52;;;;;;;20.27;15.23;;;;;;;-1.42;90.91;99948.97;5022598;27;105100;-60
2022/01/15 08:30:21;;;;;;;19.73;14.80;;;;;;;-1.18;90.58;99950.59;5038641;27;103185;-60
2022/01/15 08:32:49;;;;;;;16.97;13.93;;;;;;;-1.07;89.84;99951.38;5049852;27;102629;-61
2022/01/15 08:35:18;;;;;;;22.70;20.40;;;;;;;-0.48;89.09;99952.69;5021776;27;103727;-61
2022/01/15 08:37:46;;;;;;;26.55;23.65;;;;;;;0.35;86.80;99944.91;5033588;27;104046;-61
2022/01/15 08:40:19;;;;;;;33.43;28.50;;;;;;;0.92;83.96;99942.44;5037218;27;103317;-61
2022/01/15 08:42:48;;;;;;;30.30;26.98;;;;;;;1.23;81.00;99943.72;5011080;27;103119;-60
2022/01/15 08:45:16;;;;;;;26.10;23.50;;;;;;;1.57;79.66;99936.22;5036040;27;104042;-61
2022/01/15 08:47:44;;;;;;;23.38;20.98;;;;;;;1.90;79.20;99937.38;5045117;27;103062;-60
2022/01/15 08:50:15;;;;;;;24.60;22.27;;;;;;;1.59;79.14;99926.63;5051067;27;103190;-60
2022/01/15 08:52:44;;;;;;;22.50;20.35;;;;;;;1.90;79.52;99926.97;5039847;27;102598;-60
2022/01/15 08:55:12;;;;;;;21.58;19.63;;;;;;;2.23;77.30;99921.09;5038373;27;103601;-61
2022/01/15 08:57:42;;;;;;;23.10;20.90;;;;;;;1.59;77.19;99924.03;5027831;27;103183;-61
2022/01/15 09:00:14;;;;;;;21.38;19.27;;;;;;;1.81;79.26;99927.97;5038317;27;103064;-60
2022/01/15 09:02:42;;;;;;;19.23;17.33;;;;;;;2.29;77.91;99923.59;5034256;27;103125;-61
2022/01/15 09:05:11;;;;;;;20.95;19.00;;;;;;;0.55;83.66;99924.72;5036981;27;102900;-60
2022/01/15 09:07:42;;;;;;;21.40;19.40;;;;;;;0.15;83.69;99936.47;5042906;27;104454;-60
2022/01/15 09:10:10;;;;;;;23.70;21.40;;;;;;;-0.35;88.88;99928.31;5045996;27;103193;-61
2022/01/15 09:12:42;;;;;;;25.58;23.17;;;;;;;-0.15;88.42;99931.59;5045751;27;102632;-61
2022/01/15 09:15:28;;;;;;;21.80;19.73;;;;;;;1.37;83.89;99927.88;5032075;27;103158;-61
2022/01/15 09:17:57;;;;;;;23.02;20.77;;;;;;;1.29;82.34;99928.00;5042013;27;104290;-61
2022/01/15 09:20:25;;;;;;;20.77;18.88;;;;;;;1.94;81.21;99920.81;5032701;27;102718;-61
2022/01/15 09:22:53;;;;;;;21.30;19.17;;;;;;;1.65;80.82;99927.41;5023008;27;102877;-61
2022/01/15 09:25:21;;;;;;;24.70;22.27;;;;;;;1.12;83.42;99917.81;5056219;27;103680;-61
2022/01/15 09:30:36;;;;;;;24.90;22.40;;;;;;;1.08;83.69;99929.19;5053337;27;103234;-64
2022/01/15 09:33:05;;;;;;;25.42;22.92;;;;;;;1.21;85.42;99919.44;5046670;27;103180;-64
2022/01/15 09:35:33;;;;;;;24.63;22.20;;;;;;;1.16;86.47;99921.25;5039580;27;103875;-64
2022/01/15 09:38:06;;;;;;;24.83;22.25;;;;;;;1.40;84.29;99923.50;5032527;27;104196;-64
2022/01/15 09:40:35;;;;;;;22.73;20.52;;;;;;;1.91;83.91;99910.44;5046397;27;102950;-64
2022/01/15 09:43:05;;;;;;;22.77;20.67;;;;;;;1.61;83.84;99915.31;5037473;27;102775;-64
2022/01/15 09:45:35;;;;;;;24.08;21.67;;;;;;;1.19;84.41;99926.41;5044836;27;104291;-64
2022/01/15 09:48:07;;;;;;;23.40;21.02;;;;;;;1.51;85.49;99918.97;5039634;27;103617;-64
2022/01/15 09:50:37;;;;;;;21.27;19.17;;;;;;;2.29;81.38;99915.78;5058992;27;103208;-65
2022/01/15 09:53:05;;;;;;;21.63;19.53;;;;;;;2.43;81.76;99918.09;5033106;27;102644;-64
2022/01/15 09:55:34;;;;;;;20.23;18.33;;;;;;;2.78;80.56;99913.84;5031875;27;104075;-64
2022/01/15 09:58:02;;;;;;;22.45;20.25;;;;;;;2.79;79.26;99906.88;5054856;27;103282;-64
2022/01/15 10:00:33;;;;;;;21.83;19.77;;;;;;;2.46;81.24;99902.38;5040995;27;104648;-64
2022/01/15 10:03:02;;;;;;;23.05;20.90;;;;;;;2.34;81.38;99903.50;5048743;27;102602;-64
2022/01/15 10:05:33;;;;;;;20.02;18.23;;;;;;;3.08;79.30;99907.09;5039194;27;103044;-64
2022/01/15 10:08:03;;;;;;;22.75;20.55;;;;;;;2.38;81.00;99905.16;5052237;27;104107;-62
2022/01/15 10:10:37;;;;;;;23.90;21.70;;;;;;;1.42;83.85;99903.47;5053201;27;103393;-62
2022/01/15 10:13:16;;;;;;;24.35;21.98;;;;;;;1.31;83.86;99905.41;5043993;27;102723;-62
2022/01/15 10:15:47;;;;;;;21.35;19.35;;;;;;;2.25;82.93;99903.66;5045137;27;103680;-61
2022/01/15 10:18:20;;;;;;;23.48;21.23;;;;;;;1.98;80.04;99904.22;5061122;27;103518;-61
2022/01/15 10:20:49;;;;;;;23.25;20.98;;;;;;;2.43;80.30;99892.88;5047148;27;103198;-64
2022/01/15 10:23:19;;;;;;;24.17;21.83;;;;;;;1.35;84.24;99896.63;5055405;27;102884;-61
2022/01/15 10:26:14;;;;;;;21.53;19.63;;;;;;;2.82;81.43;99892.03;5047767;27;102848;-61
2022/01/15 10:29:00;;;;;;;24.45;22.17;;;;;;;2.34;81.86;99887.84;5037113;27;103599;-61
2022/01/15 10:31:30;;;;;;;23.80;21.67;;;;;;;2.28;79.61;99877.53;5046500;27;102949;-61
2022/01/15 10:33:59;;;;;;;21.38;19.42;;;;;;;2.51;81.83;99893.56;5036543;27;102926;-61
2022/01/15 10:36:31;;;;;;;20.90;18.90;;;;;;;3.54;77.27;99877.25;5047025;27;103067;-62
2022/01/15 10:39:14;;;;;;;24.08;21.77;;;;;;;2.04;80.66;99878.91;5055864;27;103267;-62
2022/01/15 10:41:44;;;;;;;24.65;22.25;;;;;;;2.32;81.57;99866.16;5050805;27;103293;-61
2022/01/15 10:44:34;;;;;;;25.50;23.08;;;;;;;2.61;82.83;99876.81;5026659;27;102678;-61
2022/01/15 10:47:05;;;;;;;22.90;20.70;;;;;;;3.03;80.05;99866.31;5057289;27;102833;-61
2022/01/15 10:49:37;;;;;;;26.13;23.63;;;;;;;2.60;80.90;99856.00;5052874;27;103903;-61
2022/01/15 10:52:10;;;;;;;27.07;24.37;;;;;;;2.98;81.68;99855.97;5045839;27;103711;-61
2022/01/15 10:55:01;;;;;;;24.52;22.30;;;;;;;3.72;80.28;99850.63;5041417;27;102991;-61
2022/01/15 10:57:33;;;;;;;23.30;21.10;;;;;;;4.46;77.58;99840.69;5046263;27;102582;-62
2022/01/15 11:00:13;;;;;;;23.90;21.60;;;;;;;4.58;75.58;99835.06;5048887;27;103786;-61
2022/01/15 11:02:43;;;;;;;26.93;24.37;;;;;;;3.68;75.88;99838.56;5047711;27;103212;-62
2022/01/15 11:05:24;;;;;;;28.75;25.88;;;;;;;2.35;83.50;99837.41;5026644;27;102695;-62
2022/01/15 11:07:53;;;;;;;28.42;25.75;;;;;;;2.05;86.13;99830.22;5051964;27;102977;-62
2022/01/15 11:10:21;;;;;;;28.13;25.42;;;;;;;2.18;84.73;99829.09;5037103;27;103753;-62
2022/01/15 11:12:50;;;;;;;29.52;26.73;;;;;;;1.74;87.15;99833.41;5058661;27;103298;-62
2022/01/15 11:15:18;;;;;;;28.95;26.15;;;;;;;2.11;87.01;99827.47;5026764;27;102728;-61
2022/01/15 11:17:47;;;;;;;27.57;24.97;;;;;;;2.58;87.51;99819.50;5058418;27;103767;-62
2022/01/15 11:20:16;;;;;;;25.30;23.02;;;;;;;3.03;85.62;99821.94;5041818;27;104344;-62
2022/01/15 11:22:47;;;;;;;27.77;25.17;;;;;;;2.15;86.45;99821.31;5041286;27;103193;-62
2022/01/15 11:25:15;;;;;;;27.60;25.00;;;;;;;1.98;86.98;99820.81;5038807;27;102872;-62
2022/01/15 11:27:44;;;;;;;26.60;24.20;;;;;;;2.37;89.23;99814.75;5045428;27;103049;-62
2022/01/15 11:30:19;;;;;;;24.47;22.27;;;;;;;3.82;82.78;99815.47;5047110;27;104659;-63
2022/01/15 11:32:50;;;;;;;23.08;20.98;;;;;;;4.67;77.20;99806.00;5029277;27;103172;-62
2022/01/15 11:35:18;;;;;;;21.83;19.83;;;;;;;5.33;74.36;99794.25;5058028;27;102726;-62
2022/01/15 11:37:49;;;;;;;24.15;21.92;;;;;;;4.94;75.25;99792.00;5015762;27;103862;-62
2022/01/15 11:40:40;;;;;;;22.83;20.83;;;;;;;4.87;75.10;99785.28;5047131;27;103698;-62